Time;durP1;ratioP1;P1;durP2;ratioP2;P2;SDS_P1;SDS_P2;PMS_P1;PMS_P2;Temp;Humidity;BMP_temperature;BMP_pressure;BME280_temperature;BME280_humidity;BME280_pressure;Samples;Min_cycle;Max_cycle;Signal;HPM_P1;HPM_P2
2023/08/22 00:02:23;;;;;;;;;9.25;9.25;;;;;29.31;41.73;99402.81;5077776;28;45399;-62
2023/08/22 00:04:48;;;;;;;;;9.75;9.50;;;;;29.28;41.42;99405.88;5077466;28;45430;-62
2023/08/22 00:07:14;;;;;;;;;9.00;9.00;;;;;29.26;41.61;99402.47;5077748;28;45300;-62
2023/08/22 00:09:39;;;;;;;;;8.00;7.00;;;;;29.23;41.67;99400.94;5078185;28;46356;-62
2023/08/22 00:12:05;;;;;;;;;11.75;9.00;;;;;29.22;41.66;99395.69;5077420;28;45358;-62
2023/08/22 00:14:31;;;;;;;;;9.50;9.50;;;;;29.21;41.13;99407.56;5076470;28;45610;-62
2023/08/22 00:16:56;;;;;;;;;6.50;6.50;;;;;29.19;41.33;99405.03;5077425;28;45519;-62
2023/08/22 00:19:22;;;;;;;;;11.50;9.00;;;;;29.16;41.73;99398.06;5077335;28;45412;-62
2023/08/22 00:21:47;;;;;;;;;11.75;8.75;;;;;29.13;41.80;99397.59;5077292;28;45435;-62
2023/08/22 00:24:13;;;;;;;;;10.00;10.00;;;;;29.07;42.32;99400.97;5077328;28;45326;-62
2023/08/22 00:26:38;;;;;;;;;9.00;8.25;;;;;29.01;42.18;99390.81;5076509;28;45523;-62
2023/08/22 00:29:03;;;;;;;;;12.50;10.25;;;;;28.93;42.42;99394.41;5076840;28;45825;-62
2023/08/22 00:31:29;;;;;;;;;10.75;9.75;;;;;28.90;41.96;99391.16;5077834;28;45455;-62
2023/08/22 00:33:54;;;;;;;;;12.00;10.50;;;;;28.87;42.40;99388.78;5077859;28;45391;-62
2023/08/22 00:36:20;;;;;;;;;9.00;9.00;;;;;28.88;42.34;99398.63;5077530;28;45377;-62
2023/08/22 00:38:45;;;;;;;;;9.00;8.50;;;;;28.87;42.37;99388.78;5077581;28;46522;-62
2023/08/22 00:41:10;;;;;;;;;9.25;9.25;;;;;28.86;42.62;99395.25;5076793;28;45440;-62
2023/08/22 00:43:36;;;;;;;;;12.25;9.25;;;;;28.84;42.51;99392.69;5077858;28;45474;-62
2023/08/22 00:46:02;;;;;;;;;10.00;9.75;;;;;28.82;43.06;99394.75;5077309;28;45368;-62
2023/08/22 00:48:27;;;;;;;;;9.00;9.00;;;;;28.79;43.13;99398.66;5076726;28;46720;-62
2023/08/22 00:50:53;;;;;;;;;11.50;11.50;;;;;28.72;43.62;99394.03;5077317;28;45716;-62
2023/08/22 00:53:18;;;;;;;;;10.25;10.25;;;;;28.64;44.01;99403.03;5077508;28;45440;-62
2023/08/22 00:55:44;;;;;;;;;9.25;9.25;;;;;28.57;43.88;99391.16;5077063;28;45429;-62
2023/08/22 00:58:10;;;;;;;;;11.75;11.25;;;;;28.55;44.07;99395.06;5077284;28;46370;-62
2023/08/22 01:00:37;;;;;;;;;11.80;11.00;;;;;28.52;44.33;99398.09;5075780;28;46142;-62
2023/08/22 01:03:03;;;;;;;;;8.00;8.00;;;;;28.45;44.33;99406.94;5076978;28;45407;-62
2023/08/22 01:05:32;;;;;;;;;11.25;9.50;;;;;28.39;44.86;99404.88;5076431;28;45442;-63
2023/08/22 01:08:20;;;;;;;;;12.00;9.00;;;;;28.33;45.11;99404.69;5076927;28;46269;-62
2023/08/22 01:10:52;;;;;;;;;13.00;12.20;;;;;28.21;45.26;99406.03;5076211;28;45444;-62
2023/08/22 01:13:22;;;;;;;;;12.00;11.00;;;;;28.14;45.56;99401.28;5077111;28;45352;-62
2023/08/22 01:15:50;;;;;;;;;9.75;9.75;;;;;28.06;45.43;99401.25;5075748;28;45377;-62
2023/08/22 01:18:18;;;;;;;;;11.50;10.50;;;;;27.96;45.94;99405.13;5076843;28;46143;-62
2023/08/22 01:20:44;;;;;;;;;10.40;10.20;;;;;27.88;45.68;99400.53;5076977;28;45392;-62
2023/08/22 01:23:09;;;;;;;;;10.25;9.00;;;;;27.83;45.77;99402.88;5077034;28;45381;-62
2023/08/22 01:25:36;;;;;;;;;14.50;13.50;;;;;27.77;46.29;99407.09;5076480;28;45587;-62
2023/08/22 01:28:26;;;;;;;;;10.50;9.75;;;;;27.73;45.83;99413.00;5076706;28;46587;-62
2023/08/22 01:31:00;;;;;;;;;11.80;11.60;;;;;27.68;45.89;99415.34;5076935;28;45522;-62
2023/08/22 01:33:36;;;;;;;;;9.00;8.00;;;;;27.62;46.43;99416.00;5077041;28;45383;-62
2023/08/22 01:36:04;;;;;;;;;13.00;12.00;;;;;27.58;46.42;99414.63;5076488;28;45421;-62
2023/08/22 01:38:31;;;;;;;;;10.00;9.25;;;;;27.54;46.74;99413.22;5076747;27;46405;-64
2023/08/22 01:40:58;;;;;;;;;11.60;10.80;;;;;27.50;46.30;99411.84;5076081;28;45374;-64
2023/08/22 01:43:26;;;;;;;;;9.75;9.75;;;;;27.47;46.46;99409.47;5077100;28;45403;-64
2023/08/22 01:45:51;;;;;;;;;11.00;11.00;;;;;27.43;46.71;99411.66;5076780;28;45550;-63
2023/08/22 01:48:17;;;;;;;;;8.50;8.50;;;;;27.41;46.64;99405.56;5076281;28;45644;-64
2023/08/22 01:50:43;;;;;;;;;9.50;9.50;;;;;27.38;46.74;99404.00;5076511;28;45363;-64
2023/08/22 01:53:08;;;;;;;;;10.25;10.00;;;;;27.39;47.01;99407.56;5076358;28;45473;-64
2023/08/22 01:55:34;;;;;;;;;9.00;9.00;;;;;27.39;46.84;99408.41;5076077;28;45436;-62
2023/08/22 01:57:59;;;;;;;;;11.25;10.75;;;;;27.38;46.86;99408.56;5076129;28;46167;-62
2023/08/22 02:00:25;;;;;;;;;8.00;6.25;;;;;27.37;47.00;99401.47;5076215;28;45360;-62
2023/08/22 02:02:50;;;;;;;;;10.00;10.00;;;;;27.38;46.85;99406.72;5076229;28;45352;-62
2023/08/22 02:05:16;;;;;;;;;11.25;10.25;;;;;27.39;47.29;99405.72;5075816;28;45519;-62
2023/08/22 02:07:41;;;;;;;;;12.25;10.75;;;;;27.38;47.48;99405.88;5055768;28;45421;-62
2023/08/22 02:10:07;;;;;;;;;11.25;10.25;;;;;27.35;47.51;99403.47;5055523;28;45431;-61
2023/08/22 02:12:32;;;;;;;;;9.25;9.25;;;;;27.32;47.54;99401.09;5055965;28;45473;-61
2023/08/22 02:14:58;;;;;;;;;10.75;10.75;;;;;27.28;47.75;99403.28;5054530;28;45347;-61
2023/08/22 02:17:23;;;;;;;;;12.25;11.25;;;;;27.25;47.93;99406.31;5055825;28;46430;-61
2023/08/22 02:19:49;;;;;;;;;9.50;9.50;;;;;27.21;47.69;99396.81;5055694;28;45392;-61
2023/08/22 02:22:14;;;;;;;;;11.00;11.00;;;;;27.20;48.03;99405.09;5055123;28;45412;-61
2023/08/22 02:24:40;;;;;;;;;11.25;11.25;;;;;27.17;47.89;99408.09;5055591;28;45474;-62
2023/08/22 02:27:05;;;;;;;;;12.25;11.50;;;;;27.14;47.99;99401.19;5053812;28;47374;-61
2023/08/22 02:29:31;;;;;;;;;11.00;10.75;;;;;27.13;47.79;99401.34;5055705;28;45425;-61
2023/08/22 02:31:57;;;;;;;;;11.75;10.75;;;;;27.12;47.64;99405.06;5055773;28;45310;-61
2023/08/22 02:34:24;;;;;;;;;10.50;10.00;;;;;27.12;48.82;99408.63;5058530;28;45545;-61
2023/08/22 02:36:49;;;;;;;;;7.50;6.25;;;;;27.11;48.25;99412.31;5075603;28;46589;-61
2023/08/22 02:39:15;;;;;;;;;13.00;13.00;;;;;27.06;48.28;99409.25;5075663;28;45448;-61
2023/08/22 02:41:40;;;;;;;;;10.75;9.25;;;;;27.03;48.53;99401.44;5075012;28;45900;-61
2023/08/22 02:44:06;;;;;;;;;9.75;8.75;;;;;27.03;48.57;99404.13;5075318;28;45463;-61
2023/08/22 02:46:31;;;;;;;;;14.25;11.50;;;;;27.02;48.35;99400.59;5074635;28;45468;-61
2023/08/22 02:48:57;;;;;;;;;10.00;10.00;;;;;27.00;48.60;99402.59;5074248;28;45596;-61
2023/08/22 02:51:22;;;;;;;;;13.00;11.00;;;;;26.97;48.33;99404.78;5075144;28;45526;-61
2023/08/22 02:53:48;;;;;;;;;11.00;11.00;;;;;26.95;48.45;99404.09;5075169;28;45357;-61
2023/08/22 02:56:14;;;;;;;;;10.50;9.50;;;;;26.95;48.50;99412.22;5074387;28;46104;-61
2023/08/22 02:58:40;;;;;;;;;15.50;14.00;;;;;26.95;48.83;99406.81;5073821;28;45420;-62
2023/08/22 03:01:07;;;;;;;;;10.25;10.25;;;;;26.95;48.42;99409.50;5075193;28;45352;-64
2023/08/22 03:03:32;;;;;;;;;13.50;10.50;;;;;26.93;48.69;99398.81;5075337;28;45348;-62
2023/08/22 03:05:58;;;;;;;;;10.50;10.50;;;;;26.92;48.56;99402.53;5075036;28;45463;-62
2023/08/22 03:08:23;;;;;;;;;11.25;11.25;;;;;26.92;48.63;99405.22;5073910;28;45394;-62
2023/08/22 03:10:49;;;;;;;;;11.50;10.50;;;;;26.92;48.81;99402.53;5074926;27;45351;-61
2023/08/22 03:13:14;;;;;;;;;10.50;10.50;;;;;26.92;48.87;99405.22;5075162;28;45463;-62
2023/08/22 03:15:40;;;;;;;;;15.75;12.25;;;;;26.93;48.87;99403.38;5074863;28;46185;-61
2023/08/22 03:18:05;;;;;;;;;11.75;11.25;;;;;26.90;49.37;99409.09;5075114;28;45326;-61
2023/08/22 03:20:31;;;;;;;;;11.00;11.00;;;;;26.84;49.48;99409.72;5075345;28;45381;-61
2023/08/22 03:22:56;;;;;;;;;11.50;10.25;;;;;26.80;49.57;99406.50;5075044;28;45604;-61
2023/08/22 03:25:22;;;;;;;;;12.00;11.25;;;;;26.77;49.44;99404.97;5074624;28;45496;-63
2023/08/22 03:27:47;;;;;;;;;12.00;12.00;;;;;26.77;49.15;99409.53;5074877;28;45336;-62
2023/08/22 03:30:12;;;;;;;;;13.75;12.75;;;;;26.77;49.66;99410.38;5075100;28;45635;-62
2023/08/22 03:32:38;;;;;;;;;10.25;10.25;;;;;26.79;49.81;99412.06;5073832;28;45371;-63
2023/08/22 03:35:04;;;;;;;;;10.00;9.50;;;;;26.79;49.48;99401.25;5074614;28;45394;-62
2023/08/22 03:37:29;;;;;;;;;9.50;9.50;;;;;26.77;50.09;99406.81;5074513;28;45467;-62
2023/08/22 03:39:55;;;;;;;;;11.25;11.25;;;;;26.75;49.77;99406.97;5074276;28;45506;-63
2023/08/22 03:42:20;;;;;;;;;16.50;14.00;;;;;26.75;49.86;99408.81;5074604;28;45601;-62
2023/08/22 03:44:46;;;;;;;;;11.00;10.25;;;;;26.71;50.03;99410.13;5074590;28;45507;-62
2023/08/22 03:47:11;;;;;;;;;9.75;9.25;;;;;26.67;50.14;99415.00;5074072;28;45514;-62
2023/08/22 03:49:37;;;;;;;;;10.00;9.00;;;;;26.62;50.37;99405.69;5074542;28;45419;-62
2023/08/22 03:52:03;;;;;;;;;10.75;9.75;;;;;26.57;50.44;99411.56;5074447;28;45408;-62
2023/08/22 03:54:28;;;;;;;;;11.75;10.25;;;;;26.54;50.73;99411.84;5074461;28;45392;-62
2023/08/22 03:56:53;;;;;;;;;14.00;10.00;;;;;26.50;50.28;99410.47;5073721;28;45370;-62
2023/08/22 03:59:19;;;;;;;;;13.25;12.50;;;;;26.49;50.57;99416.03;5074846;28;45353;-62
2023/08/22 04:01:44;;;;;;;;;12.00;12.00;;;;;26.47;50.26;99424.31;5074462;28;45376;-62
2023/08/22 04:04:10;;;;;;;;;13.00;11.25;;;;;26.45;50.66;99414.66;5074307;28;46032;-62
2023/08/22 04:06:35;;;;;;;;;16.25;14.50;;;;;26.44;50.00;99419.22;5074437;28;45396;-62
2023/08/22 04:09:01;;;;;;;;;16.25;14.50;;;;;26.45;49.95;99417.38;5074546;28;45715;-62
2023/08/22 04:11:26;;;;;;;;;12.50;12.50;;;;;26.45;50.60;99415.50;5074042;27;45477;-62
2023/08/22 04:13:52;;;;;;;;;13.00;13.00;;;;;26.46;50.52;99416.38;5073770;28;46096;-62
2023/08/22 04:16:17;;;;;;;;;9.00;7.50;;;;;26.43;50.13;99417.50;5073973;28;45503;-62
2023/08/22 04:18:43;;;;;;;;;11.25;11.25;;;;;26.44;50.79;99419.22;5074514;28;45903;-62
2023/08/22 04:21:08;;;;;;;;;13.25;12.50;;;;;26.42;50.35;99421.22;5074171;28;45347;-62
2023/08/22 04:23:33;;;;;;;;;13.00;12.00;;;;;26.38;50.71;99422.53;5074336;27;46765;-62
2023/08/22 04:25:59;;;;;;;;;16.00;12.50;;;;;26.33;50.77;99420.28;5073604;28;45402;-62
2023/08/22 04:28:24;;;;;;;;;13.00;12.00;;;;;26.29;50.51;99427.03;5074061;28;45766;-62
2023/08/22 04:30:50;;;;;;;;;12.25;11.75;;;;;26.26;50.66;99434.53;5073859;28;45536;-62
2023/08/22 04:33:15;;;;;;;;;12.00;12.00;;;;;26.25;50.97;99428.28;5073919;28;46173;-62
2023/08/22 04:35:41;;;;;;;;;15.00;14.50;;;;;26.25;50.99;99436.41;5073639;28;45452;-62
2023/08/22 04:38:06;;;;;;;;;12.75;11.50;;;;;26.23;51.24;99430.28;5074308;28;45368;-61
2023/08/22 04:40:32;;;;;;;;;10.25;10.25;;;;;26.20;51.16;99427.91;5071786;28;45308;-62
2023/08/22 04:42:57;;;;;;;;;11.00;10.00;;;;;26.20;51.54;99438.72;5073492;28;45361;-62
2023/08/22 04:45:22;;;;;;;;;14.00;14.00;;;;;26.23;51.49;99440.25;5076154;28;45379;-62
2023/08/22 04:47:48;;;;;;;;;14.00;12.75;;;;;26.23;51.63;99438.41;5076850;28;45370;-62
2023/08/22 04:50:13;;;;;;;;;13.50;12.50;;;;;26.24;52.04;99439.25;5077035;28;45533;-62
2023/08/22 04:52:39;;;;;;;;;13.00;10.25;;;;;26.25;52.01;99447.22;5075586;28;45610;-62
2023/08/22 04:55:05;;;;;;;;;12.75;10.75;;;;;26.27;52.22;99445.22;5076797;28;45317;-62
2023/08/22 04:57:30;;;;;;;;;13.25;13.25;;;;;26.29;52.64;99447.78;5077125;28;45387;-62
2023/08/22 04:59:56;;;;;;;;;14.50;13.50;;;;;26.30;52.82;99446.78;5076758;28;45421;-62
2023/08/22 05:02:22;;;;;;;;;14.00;13.00;;;;;26.30;52.76;99446.78;5076542;28;45564;-62
2023/08/22 05:04:48;;;;;;;;;13.00;11.50;;;;;26.29;52.96;99445.94;5076805;28;45663;-62
2023/08/22 05:07:13;;;;;;;;;13.75;13.00;;;;;26.28;53.19;99444.22;5076690;28;45383;-62
2023/08/22 05:09:38;;;;;;;;;14.25;13.25;;;;;26.26;53.07;99448.91;5076072;28;45382;-62
2023/08/22 05:12:04;;;;;;;;;17.00;15.75;;;;;26.27;53.13;99447.06;5076692;28;46336;-62
2023/08/22 05:14:32;;;;;;;;;16.00;12.50;;;;;26.28;53.01;99451.47;5076911;28;45422;-62
2023/08/22 05:16:58;;;;;;;;;14.75;14.00;;;;;26.28;53.06;99452.31;5076649;27;45378;-63
2023/08/22 05:19:23;;;;;;;;;14.00;12.00;;;;;26.29;53.13;99456.75;5075333;28;45400;-62
2023/08/22 05:21:48;;;;;;;;;14.00;12.50;;;;;26.32;53.14;99452.88;5075970;28;45460;-63
2023/08/22 05:24:14;;;;;;;;;13.75;13.50;;;;;26.34;52.98;99445.47;5075584;28;45380;-62
2023/08/22 05:26:39;;;;;;;;;13.75;12.25;;;;;26.35;53.02;99449.88;5074797;28;45340;-62
2023/08/22 05:29:04;;;;;;;;;17.50;14.50;;;;;26.35;52.80;99449.88;5076329;28;45497;-62
2023/08/22 05:31:30;;;;;;;;;17.75;14.75;;;;;26.38;53.00;99453.13;5075971;28;46324;-62
2023/08/22 05:33:55;;;;;;;;;14.50;14.50;;;;;26.40;53.07;99458.38;5074513;28;45417;-62
2023/08/22 05:36:21;;;;;;;;;13.25;13.00;;;;;26.41;52.97;99458.22;5076000;28;45279;-62
2023/08/22 05:38:46;;;;;;;;;12.50;12.50;;;;;26.45;52.89;99453.38;5075971;28;45483;-65
2023/08/22 05:41:11;;;;;;;;;18.00;16.00;;;;;26.47;52.78;99453.22;5075417;28;45502;-65
2023/08/22 05:43:37;;;;;;;;;16.75;15.25;;;;;26.50;52.96;99458.28;5076026;28;45395;-63
2023/08/22 05:46:02;;;;;;;;;15.50;15.25;;;;;26.54;52.74;99457.84;5075957;28;45357;-64
2023/08/22 05:48:28;;;;;;;;;10.50;10.50;;;;;26.59;52.76;99458.22;5075741;28;45460;-63
2023/08/22 05:50:54;;;;;;;;;16.00;14.75;;;;;26.64;52.33;99460.47;5075793;28;46342;-63
2023/08/22 05:53:19;;;;;;;;;15.75;14.75;;;;;26.68;52.50;99469.94;5091525;27;45426;-63
2023/08/22 05:55:45;;;;;;;;;19.75;15.50;;;;;26.72;52.14;99466.78;5074774;28;45486;-64
2023/08/22 05:58:10;;;;;;;;;17.75;15.75;;;;;26.76;52.17;99470.91;5076020;28;45435;-63
2023/08/22 06:00:36;;;;;;;;;15.75;14.25;;;;;26.79;52.29;99461.63;5075466;27;46205;-63
2023/08/22 06:03:02;;;;;;;;;17.50;15.00;;;;;26.83;52.24;99475.66;5075227;28;45393;-62
2023/08/22 06:05:28;;;;;;;;;20.00;17.75;;;;;26.85;52.36;99476.34;5075140;28;45467;-63
2023/08/22 06:07:53;;;;;;;;;14.50;14.25;;;;;26.88;52.10;99478.75;5075513;27;45391;-63
2023/08/22 06:10:19;;;;;;;;;17.00;14.75;;;;;26.91;52.13;99470.31;5074835;28;45553;-63
2023/08/22 06:12:44;;;;;;;;;12.75;10.75;;;;;26.96;51.87;99474.31;5075247;28;45451;-63
2023/08/22 06:15:10;;;;;;;;;14.25;13.75;;;;;27.01;51.72;99474.66;5075099;28;45320;-63
2023/08/22 06:17:37;;;;;;;;;16.25;14.75;;;;;27.06;51.34;99479.63;5075299;28;45305;-63
2023/08/22 06:20:03;;;;;;;;;17.75;15.00;;;;;27.12;51.66;99479.00;5074785;27;46409;-63
2023/08/22 06:22:28;;;;;;;;;13.50;13.50;;;;;27.17;51.31;99476.63;5074361;27;45432;-66
2023/08/22 06:24:54;;;;;;;;;17.50;16.50;;;;;27.20;51.35;99470.91;5074027;28;45418;-63
2023/08/22 06:27:19;;;;;;;;;16.50;15.75;;;;;27.26;51.42;99480.28;5074010;28;45446;-63
2023/08/22 06:29:45;;;;;;;;;15.75;14.25;;;;;27.30;51.67;99484.38;5073531;28;45505;-65
2023/08/22 06:32:10;;;;;;;;;14.75;13.00;;;;;27.34;51.83;99485.72;5073961;27;45434;-62
2023/08/22 06:34:35;;;;;;;;;15.00;13.75;;;;;27.38;52.05;99484.41;5074419;28;45440;-64
2023/08/22 06:37:01;;;;;;;;;20.75;17.25;;;;;27.40;51.69;99483.25;5073376;28;45523;-63
2023/08/22 06:39:27;;;;;;;;;21.75;19.00;;;;;27.45;51.54;99489.03;5074394;28;46515;-63
2023/08/22 06:41:52;;;;;;;;;15.75;15.50;;;;;27.48;51.46;99482.44;5073968;28;45251;-63
2023/08/22 06:44:18;;;;;;;;;15.50;15.50;;;;;27.53;51.50;99480.09;5074145;28;45668;-63
2023/08/22 06:46:43;;;;;;;;;13.00;13.00;;;;;27.56;51.71;99487.91;5073979;28;45346;-63
2023/08/22 06:49:09;;;;;;;;;17.25;15.50;;;;;27.59;51.62;99489.47;5074273;28;46220;-63
2023/08/22 06:51:34;;;;;;;;;16.50;15.75;;;;;27.63;51.77;99485.44;5072261;28;45400;-63
2023/08/22 06:53:59;;;;;;;;;14.75;12.75;;;;;27.66;51.29;99485.94;5073914;28;45397;-64
2023/08/22 06:56:26;;;;;;;;;16.50;14.75;;;;;27.68;50.99;99483.91;5073553;28;45574;-63
2023/08/22 06:58:51;;;;;;;;;16.00;16.00;;;;;27.71;50.79;99485.47;5074021;28;46355;-63
2023/08/22 07:01:18;;;;;;;;;19.00;17.50;;;;;27.75;50.71;99481.44;5072326;28;45515;-63
2023/08/22 07:03:43;;;;;;;;;17.75;17.00;;;;;27.78;50.61;99481.97;5073333;28;45455;-63
2023/08/22 07:06:09;;;;;;;;;17.00;12.75;;;;;27.83;50.24;99477.88;5073709;28;45426;-63
2023/08/22 07:08:34;;;;;;;;;16.75;16.75;;;;;27.86;50.11;99477.56;5073685;28;45425;-63
2023/08/22 07:11:03;;;;;;;;;19.50;15.25;;;;;27.90;50.44;99478.94;5073129;28;45481;-63
2023/08/22 07:13:30;;;;;;;;;15.25;14.75;;;;;27.94;50.25;99478.47;5073767;28;45322;-63
2023/08/22 07:15:55;;;;;;;;;18.50;16.50;;;;;27.99;50.40;99483.38;5072505;28;45410;-62
2023/08/22 07:18:20;;;;;;;;;14.75;14.75;;;;;28.04;50.53;99476.47;5073679;28;46187;-63
2023/08/22 07:20:46;;;;;;;;;15.00;14.00;;;;;28.09;50.16;99476.81;5073615;28;45309;-62
2023/08/22 07:23:12;;;;;;;;;14.25;14.25;;;;;28.17;49.72;99475.13;5073498;27;45422;-64
2023/08/22 07:25:39;;;;;;;;;18.50;16.50;;;;;28.22;50.25;99484.50;5072918;28;45403;-64
2023/08/22 07:28:04;;;;;;;;;16.25;15.50;;;;;28.28;50.19;99477.59;5071853;28;46730;-63
2023/08/22 07:30:32;;;;;;;;;16.50;15.75;;;;;28.34;49.82;99479.63;5073730;28;45497;-62
2023/08/22 07:32:58;;;;;;;;;14.25;14.00;;;;;28.38;49.46;99470.16;5073962;28;45394;-62
2023/08/22 07:35:24;;;;;;;;;16.25;15.00;;;;;28.43;49.62;99473.22;5073379;28;45400;-62
2023/08/22 07:37:50;;;;;;;;;18.50;15.50;;;;;28.45;49.33;99474.75;5073396;28;46729;-62
2023/08/22 07:40:16;;;;;;;;;19.50;16.25;;;;;28.51;49.35;99473.22;5072740;28;45395;-62
2023/08/22 07:42:42;;;;;;;;;16.50;16.50;;;;;28.57;49.33;99477.13;5072994;28;45493;-62
2023/08/22 07:45:08;;;;;;;;;18.00;16.50;;;;;28.61;48.74;99481.22;5073070;28;45492;-62
2023/08/22 07:47:33;;;;;;;;;16.50;15.50;;;;;28.66;48.98;99476.97;5072676;28;45502;-62
2023/08/22 07:49:59;;;;;;;;;19.50;18.50;;;;;28.71;49.00;99477.31;5072904;28;45397;-63
2023/08/22 07:52:24;;;;;;;;;22.50;17.75;;;;;28.76;48.89;99471.38;5073071;28;45484;-62
2023/08/22 07:54:49;;;;;;;;;20.75;19.75;;;;;28.84;49.09;99479.56;5072729;28;45517;-62
2023/08/22 07:57:15;;;;;;;;;17.25;16.25;;;;;28.90;49.02;99475.31;5073057;28;46386;-62
2023/08/22 07:59:40;;;;;;;;;19.50;16.50;;;;;28.94;48.44;99472.09;5073112;28;45542;-62
2023/08/22 08:02:06;;;;;;;;;16.00;15.75;;;;;29.00;47.91;99476.84;5073233;28;45467;-63
2023/08/22 08:04:31;;;;;;;;;17.75;15.50;;;;;29.08;48.34;99473.28;5072975;28;45546;-63
2023/08/22 08:06:56;;;;;;;;;18.50;17.00;;;;;29.13;47.96;99469.03;5073112;28;45376;-64
2023/08/22 08:09:22;;;;;;;;;16.75;14.00;;;;;29.20;47.86;99469.19;5073209;28;45405;-64
2023/08/22 08:11:47;;;;;;;;;14.50;14.50;;;;;29.27;48.31;99466.63;5072854;28;45628;-64
2023/08/22 08:14:13;;;;;;;;;14.25;14.25;;;;;29.34;48.09;99465.75;5073196;28;45301;-64
2023/08/22 08:16:38;;;;;;;;;14.50;14.50;;;;;29.41;47.80;99468.69;5072638;27;46346;-63
2023/08/22 08:19:04;;;;;;;;;13.25;12.75;;;;;29.48;46.77;99462.38;5073482;27;45473;-63
2023/08/22 08:21:29;;;;;;;;;16.00;15.75;;;;;29.55;47.02;99464.38;5076036;27;45402;-63
2023/08/22 08:23:55;;;;;;;;;18.75;17.50;;;;;29.57;47.33;99463.19;5074450;28;45412;-63
2023/08/22 08:26:20;;;;;;;;;17.00;17.00;;;;;29.65;46.97;99465.06;5075540;28;46202;-63
2023/08/22 08:28:46;;;;;;;;;18.25;18.00;;;;;29.73;46.24;99462.28;5074665;28;45940;-63
2023/08/22 08:31:12;;;;;;;;;18.50;16.00;;;;;29.79;45.81;99464.31;5076726;27;45313;-63
2023/08/22 08:33:37;;;;;;;;;19.00;18.00;;;;;29.87;46.48;99464.28;5076219;28;45422;-63
2023/08/22 08:36:04;;;;;;;;;19.50;18.50;;;;;29.95;46.07;99455.25;5075930;27;46079;-63
2023/08/22 08:38:29;;;;;;;;;17.00;16.50;;;;;30.01;45.64;99449.94;5075972;28;45426;-63
2023/08/22 08:40:59;;;;;;;;;18.00;18.00;;;;;30.09;46.18;99454.50;5075949;28;45459;-63
2023/08/22 08:43:25;;;;;;;;;18.00;17.00;;;;;30.15;45.71;99449.22;5076212;28;45570;-63
2023/08/22 08:45:51;;;;;;;;;18.25;18.00;;;;;30.22;45.34;99449.34;5074534;28;46871;-63
2023/08/22 08:48:21;;;;;;;;;16.50;14.00;;;;;30.30;44.90;99445.72;5075736;27;45347;-63
2023/08/22 08:50:48;;;;;;;;;18.50;15.25;;;;;30.36;44.83;99443.13;5075561;28;45418;-63
2023/08/22 08:53:13;;;;;;;;;14.75;14.75;;;;;30.42;44.64;99447.00;5075457;28;45416;-64
2023/08/22 08:55:41;;;;;;;;;16.25;15.50;;;;;30.50;43.61;99441.50;5075084;28;45440;-63
2023/08/22 08:58:09;;;;;;;;;14.50;14.50;;;;;30.56;43.62;99445.41;5075643;28;45486;-63
2023/08/22 09:00:37;;;;;;;;;18.75;16.00;;;;;30.62;43.90;99445.53;5075944;28;45484;-64
2023/08/22 09:03:03;;;;;;;;;11.00;11.00;;;;;30.69;43.16;99441.03;5075662;28;45381;-62
2023/08/22 09:05:29;;;;;;;;;14.00;13.00;;;;;30.75;43.18;99443.03;5074176;28;48506;-64
2023/08/22 09:07:55;;;;;;;;;13.50;13.50;;;;;30.81;42.58;99439.59;5075811;27;45399;-64
2023/08/22 09:10:34;;;;;;;;;12.25;11.50;;;;;30.89;42.49;99441.38;5075024;28;45468;-64
2023/08/22 09:13:04;;;;;;;;;13.75;12.00;;;;;30.95;42.44;99432.50;5075824;27;45404;-63
2023/08/22 09:15:30;;;;;;;;;16.00;14.75;;;;;31.01;41.93;99434.47;5075349;27;46169;-63
2023/08/22 09:17:56;;;;;;;;;16.75;15.00;;;;;31.08;42.79;99429.13;5075846;28;45311;-63
2023/08/22 09:20:22;;;;;;;;;18.00;16.25;;;;;31.15;42.46;99435.56;5075624;28;45355;-63
2023/08/22 09:22:47;;;;;;;;;15.00;14.75;;;;;31.23;42.06;99427.31;5075539;27;45381;-63
2023/08/22 09:25:14;;;;;;;;;8.75;8.25;;;;;31.30;42.47;99427.41;5074949;28;45961;-63
2023/08/22 09:27:39;;;;;;;;;17.00;16.00;;;;;31.35;42.55;99423.06;5075475;27;45451;-63
2023/08/22 09:30:06;;;;;;;;;19.00;16.25;;;;;31.40;42.02;99422.53;5075343;28;45490;-63
2023/08/22 09:32:32;;;;;;;;;17.25;17.00;;;;;31.47;42.39;99423.47;5073320;28;45397;-63
2023/08/22 09:35:00;;;;;;;;;16.50;15.50;;;;;31.51;42.54;99422.88;5074820;27;45471;-63
2023/08/22 09:37:33;;;;;;;;;16.00;14.25;;;;;31.58;42.48;99406.63;5075611;28;45325;-64
2023/08/22 09:40:00;;;;;;;;;20.00;16.75;;;;;31.63;42.51;99408.81;5074980;28;45411;-64
2023/08/22 09:42:31;;;;;;;;;18.25;15.75;;;;;31.68;42.43;99411.81;5075407;28;45383;-63
2023/08/22 09:44:58;;;;;;;;;16.00;16.00;;;;;31.74;41.96;99405.63;5073832;28;46068;-63
2023/08/22 09:47:30;;;;;;;;;17.75;17.00;;;;;31.79;41.80;99398.56;5073287;28;45352;-63
2023/08/22 09:49:58;;;;;;;;;18.00;16.75;;;;;31.88;41.95;99397.41;5075450;28;45396;-63
2023/08/22 09:52:25;;;;;;;;;19.75;19.75;;;;;31.97;42.20;99391.84;5074882;28;45367;-63
2023/08/22 09:54:52;;;;;;;;;16.50;16.50;;;;;32.06;42.48;99390.69;5074402;28;45517;-63
2023/08/22 09:57:18;;;;;;;;;19.50;17.00;;;;;32.13;42.01;99389.72;5074530;28;45462;-63
2023/08/22 09:59:47;;;;;;;;;21.25;19.00;;;;;32.22;42.24;99385.88;5090543;27;45483;-63
2023/08/22 10:02:14;;;;;;;;;17.25;14.50;;;;;32.30;41.69;99384.06;5075097;28;45371;-63
2023/08/22 10:04:40;;;;;;;;;16.00;15.25;;;;;32.39;41.39;99383.72;5072785;28;47774;-63
2023/08/22 10:07:06;;;;;;;;;14.75;14.25;;;;;32.48;41.25;99379.00;5074429;28;45313;-63
2023/08/22 10:09:32;;;;;;;;;17.50;16.50;;;;;32.56;40.88;99389.75;5074376;27;45356;-63
2023/08/22 10:12:01;;;;;;;;;16.50;16.50;;;;;32.62;40.97;99380.81;5074611;27;45408;-63
2023/08/22 10:14:56;;;;;;;;;19.00;16.75;;;;;32.69;40.82;99378.09;5073993;28;45701;-63
2023/08/22 10:17:26;;;;;;;;;17.50;16.50;;;;;32.76;40.97;99377.16;5072959;27;45470;-62
2023/08/22 10:19:51;;;;;;;;;20.50;18.00;;;;;32.82;40.49;99372.81;5084580;27;45471;-64
2023/08/22 10:22:18;;;;;;;;;15.50;15.00;;;;;32.85;40.15;99370.50;5094801;27;45322;-64
2023/08/22 10:24:47;;;;;;;;;15.75;15.50;;;;;32.90;40.46;99370.75;5094650;27;45493;-63
2023/08/22 10:27:15;;;;;;;;;16.50;15.50;;;;;32.97;40.49;99369.97;5093578;27;45446;-64
2023/08/22 10:29:45;;;;;;;;;16.50;15.50;;;;;33.03;40.22;99366.41;5094382;27;45423;-63
2023/08/22 10:32:10;;;;;;;;;15.75;14.50;;;;;33.10;39.53;99362.72;5095030;27;45367;-63
2023/08/22 10:34:38;;;;;;;;;18.00;17.50;;;;;33.21;39.55;99361.28;5089317;27;45429;-63
2023/08/22 10:37:14;;;;;;;;;16.25;14.50;;;;;33.27;38.82;99357.78;5074209;28;45428;-64
2023/08/22 10:39:44;;;;;;;;;18.75;15.25;;;;;33.33;38.71;99351.53;5073933;28;45299;-63
2023/08/22 10:42:13;;;;;;;;;18.75;17.50;;;;;33.38;38.50;99350.91;5073567;28;45406;-63
2023/08/22 10:44:39;;;;;;;;;13.25;13.25;;;;;33.40;38.47;99344.19;5073875;27;45576;-63
2023/08/22 10:47:06;;;;;;;;;15.25;14.75;;;;;33.41;38.08;99334.09;5073662;28;45574;-63
2023/08/22 10:49:34;;;;;;;;;14.00;13.50;;;;;33.41;37.99;99334.94;5074045;28;45388;-63
2023/08/22 10:52:04;;;;;;;;;14.50;14.50;;;;;33.43;38.14;99319.19;5073605;28;45577;-64
2023/08/22 10:54:31;;;;;;;;;15.25;15.25;;;;;33.47;37.74;99315.00;5089093;27;47992;-64
2023/08/22 10:57:23;;;;;;;;;15.25;15.00;;;;;33.54;37.77;99318.59;5072866;28;45263;-64
2023/08/22 11:00:01;;;;;;;;;15.25;15.25;;;;;33.61;38.08;99319.47;5071187;28;45562;-65
2023/08/22 11:02:35;;;;;;;;;19.00;17.25;;;;;33.70;37.68;99309.19;5073989;28;45749;-63
2023/08/22 11:05:02;;;;;;;;;21.50;20.00;;;;;33.75;37.57;99303.09;5073826;28;46033;-63
2023/08/22 11:07:29;;;;;;;;;16.50;16.00;;;;;33.83;37.27;99309.28;5073637;28;45519;-63
2023/08/22 11:09:55;;;;;;;;;15.00;15.00;;;;;33.91;37.58;99302.75;5073661;28;45372;-63
2023/08/22 11:12:22;;;;;;;;;17.50;16.75;;;;;34.00;37.35;99295.22;5073950;28;45503;-63
2023/08/22 11:14:49;;;;;;;;;18.25;18.25;;;;;34.05;37.58;99296.25;5074196;27;46535;-63
2023/08/22 11:17:19;;;;;;;;;16.00;14.00;;;;;34.11;37.03;99289.13;5072474;27;45365;-63